CheckWX is a tool to help pilots better visualize weather data.  It is not intended as a substitute for an official pre-flight weather briefing.

12:56:08 UTC

KTCC TAF
Tucumcari Municipal Airport
Tucumcari, New Mexico, USA
KTCC 131132Z 1312/1412 29013KT P6SM SCT250 FM131700 29022G32KT P6SM SCT250 FM140100 26010KT P6SM SCT250 FM140600 VRB06KT P6SM SCT100

Dec-13@
12:00 UTC

Dec-13 @ 12:00 UTC

Dec-13@
17:00 UTC

Dec-13 @ 17:00 UTC

KTCC 131132Z 1312/1412 29013KT P6SM SCT250
Wind
  • 290° at 13 KTS
Cloud Levels
  • Scattered at 25,000' AGL

Dec-13@
17:00 UTC

Dec-13 @ 17:00 UTC

Dec-14@
01:00 UTC

Dec-14 @ 01:00 UTC

FM131700 29022G32KT P6SM SCT250

From

From Standard forecast or significant change

Wind
  • 290° at 22 KTS
  • {Gusting to 32 KTS
Cloud Levels
  • Scattered at 25,000' AGL

Dec-14@
01:00 UTC

Dec-14 @ 01:00 UTC

Dec-14@
06:00 UTC

Dec-14 @ 06:00 UTC

FM140100 26010KT P6SM SCT250

From

From Standard forecast or significant change

Wind
  • 260° at 10 KTS
Cloud Levels
  • Scattered at 25,000' AGL

Dec-14@
06:00 UTC

Dec-14 @ 06:00 UTC

Dec-14@
12:00 UTC

Dec-14 @ 12:00 UTC

FM140600 VRB06KT P6SM SCT100

From

From Standard forecast or significant change

Wind
  • Variable at 6 KTS
Cloud Levels
  • Scattered at 10,000' AGL